createdAt,value
2022-10-09T00:01:09.400Z,5.77
2022-10-09T00:03:37.182Z,5.60
2022-10-09T00:06:05.221Z,5.83
2022-10-09T00:08:32.058Z,5.60
2022-10-09T00:10:59.094Z,5.10
2022-10-09T00:13:26.016Z,5.20
2022-10-09T00:15:52.655Z,5.87
2022-10-09T00:18:19.767Z,5.60
2022-10-09T00:20:47.440Z,5.83
2022-10-09T00:23:16.538Z,5.27
2022-10-09T00:26:00.452Z,5.80
2022-10-09T00:28:36.528Z,4.43
2022-10-09T00:31:09.591Z,5.47
2022-10-09T00:33:37.505Z,5.07
2022-10-09T00:36:12.616Z,5.20
2022-10-09T00:38:39.482Z,5.37
2022-10-09T00:41:06.947Z,6.00
2022-10-09T00:43:50.188Z,5.93
2022-10-09T00:46:25.652Z,5.40
2022-10-09T00:49:04.323Z,5.60
2022-10-09T00:51:31.852Z,5.77
2022-10-09T00:53:59.557Z,5.50
2022-10-09T00:56:27.194Z,5.33
2022-10-09T00:58:56.094Z,5.60
2022-10-09T01:01:23.260Z,5.13
2022-10-09T01:03:49.971Z,5.40
2022-10-09T01:06:28.254Z,5.13
2022-10-09T01:09:07.611Z,5.43
2022-10-09T01:11:39.888Z,5.73
2022-10-09T01:14:22.727Z,5.00
2022-10-09T01:17:17.685Z,5.33
2022-10-09T01:19:47.323Z,5.10
2022-10-09T01:22:30.925Z,5.50
2022-10-09T01:25:09.185Z,5.50
2022-10-09T01:27:37.917Z,5.63
2022-10-09T01:30:10.625Z,5.03
2022-10-09T01:32:44.027Z,5.30
2022-10-09T01:35:12.822Z,4.97
2022-10-09T01:37:42.232Z,5.07
2022-10-09T01:40:09.784Z,5.40
2022-10-09T01:42:36.866Z,5.23
2022-10-09T01:45:03.668Z,5.57
2022-10-09T01:47:30.444Z,5.80
2022-10-09T01:50:10.138Z,5.20
2022-10-09T01:53:00.163Z,5.40
2022-10-09T01:55:53.180Z,4.93
2022-10-09T01:58:37.416Z,5.10
2022-10-09T02:01:07.033Z,5.50
2022-10-09T02:03:36.228Z,5.47
2022-10-09T02:06:05.865Z,5.37
2022-10-09T02:08:34.768Z,5.73
2022-10-09T02:11:12.357Z,5.67
2022-10-09T02:13:39.100Z,5.57
2022-10-09T02:16:06.321Z,6.10
2022-10-09T02:18:45.530Z,5.87
2022-10-09T02:21:26.624Z,5.90
2022-10-09T02:23:54.855Z,5.63
2022-10-09T02:26:21.827Z,5.43
2022-10-09T02:28:48.922Z,5.70
2022-10-09T02:31:24.866Z,6.10
2022-10-09T02:33:56.587Z,5.60
2022-10-09T02:36:23.491Z,5.53
2022-10-09T02:38:50.112Z,6.43
2022-10-09T02:41:17.297Z,6.50
2022-10-09T02:43:44.346Z,5.83
2022-10-09T02:46:11.492Z,6.10
2022-10-09T02:48:38.183Z,6.50
2022-10-09T02:51:04.900Z,6.37
2022-10-09T02:53:31.684Z,6.00
2022-10-09T02:55:58.734Z,6.23
2022-10-09T02:58:25.769Z,5.80
2022-10-09T03:00:53.506Z,6.30
2022-10-09T03:03:20.999Z,5.73
2022-10-09T03:05:48.296Z,5.80
2022-10-09T03:08:15.096Z,6.83
2022-10-09T03:10:42.163Z,6.57
2022-10-09T03:13:09.528Z,6.10
2022-10-09T03:15:37.278Z,7.27
2022-10-09T03:18:04.201Z,6.43
2022-10-09T03:20:31.518Z,6.83
2022-10-09T03:22:58.578Z,6.73
2022-10-09T03:25:25.656Z,6.50
2022-10-09T03:27:52.712Z,6.73
2022-10-09T03:30:19.328Z,6.83
2022-10-09T03:32:46.137Z,6.87
2022-10-09T03:35:13.365Z,6.57
2022-10-09T03:37:40.008Z,6.47
2022-10-09T03:40:07.008Z,6.30
2022-10-09T03:42:34.037Z,6.97
2022-10-09T03:45:03.030Z,6.57
2022-10-09T03:47:30.151Z,7.33
2022-10-09T03:49:57.352Z,7.13
2022-10-09T03:52:24.386Z,7.17
2022-10-09T03:54:51.065Z,6.80
2022-10-09T03:57:18.206Z,6.63
2022-10-09T03:59:44.812Z,7.07
2022-10-09T04:02:11.474Z,6.57
2022-10-09T04:04:38.574Z,6.47
2022-10-09T04:07:05.273Z,7.30
2022-10-09T04:09:32.318Z,7.20
2022-10-09T04:11:58.940Z,6.80
2022-10-09T04:14:25.579Z,6.50
2022-10-09T04:16:52.609Z,6.97
2022-10-09T04:19:19.667Z,6.57
2022-10-09T04:21:46.281Z,7.20
2022-10-09T04:24:13.330Z,6.63
2022-10-09T04:26:39.980Z,6.33
2022-10-09T04:29:07.117Z,7.60
2022-10-09T04:31:34.199Z,7.43
2022-10-09T04:34:00.880Z,6.53
2022-10-09T04:36:27.565Z,6.93
2022-10-09T04:38:54.585Z,7.00
2022-10-09T04:41:21.638Z,7.33
2022-10-09T04:43:48.269Z,7.40
2022-10-09T04:46:15.497Z,6.47
2022-10-09T04:48:45.142Z,6.80
2022-10-09T04:51:12.654Z,6.50
2022-10-09T04:53:40.091Z,6.87
2022-10-09T04:56:10.946Z,6.50
2022-10-09T04:58:39.636Z,7.00
2022-10-09T05:01:18.822Z,6.23
2022-10-09T05:03:46.026Z,6.97
2022-10-09T05:06:13.481Z,6.43
2022-10-09T05:08:42.217Z,7.23
2022-10-09T05:11:12.546Z,6.37
2022-10-09T05:13:41.687Z,5.73
2022-10-09T05:16:11.045Z,6.90
2022-10-09T05:18:49.850Z,5.90
2022-10-09T05:21:16.934Z,7.37
2022-10-09T05:23:44.256Z,5.87
2022-10-09T05:26:16.527Z,6.93
2022-10-09T05:28:43.686Z,6.33
2022-10-09T05:31:16.534Z,7.50
2022-10-09T05:33:43.644Z,6.83
2022-10-09T05:36:10.327Z,7.13
2022-10-09T05:38:37.112Z,7.00
2022-10-09T05:41:05.998Z,7.40
2022-10-09T05:43:36.272Z,7.87
2022-10-09T05:46:08.968Z,8.00
2022-10-09T05:48:37.379Z,7.70
2022-10-09T05:51:16.711Z,7.27
2022-10-09T05:53:44.691Z,7.67
2022-10-09T05:56:23.501Z,7.90
2022-10-09T05:58:54.334Z,7.27
2022-10-09T06:01:22.506Z,7.70
2022-10-09T06:03:58.260Z,7.67
2022-10-09T06:06:27.439Z,8.10
2022-10-09T06:08:55.596Z,7.37
2022-10-09T06:11:29.145Z,6.87
2022-10-09T06:13:56.541Z,7.67
2022-10-09T06:16:25.454Z,7.87
2022-10-09T06:18:53.281Z,8.13
2022-10-09T06:21:20.502Z,7.53
2022-10-09T06:23:51.854Z,8.03
2022-10-09T06:26:19.699Z,8.00
2022-10-09T06:28:47.200Z,7.83
2022-10-09T06:31:19.801Z,7.63
2022-10-09T06:33:47.872Z,7.40
2022-10-09T06:36:25.737Z,7.43
2022-10-09T06:38:53.639Z,6.77
2022-10-09T06:41:22.804Z,6.57
2022-10-09T06:44:00.933Z,9.13
2022-10-09T06:46:30.813Z,7.47
2022-10-09T06:48:59.920Z,7.40
2022-10-09T06:51:30.772Z,6.83
2022-10-09T06:53:59.803Z,7.27
2022-10-09T06:56:28.471Z,6.50
2022-10-09T06:58:55.636Z,7.30
2022-10-09T07:01:24.638Z,6.70
2022-10-09T07:03:56.801Z,6.90
2022-10-09T07:06:26.350Z,6.77
2022-10-09T07:08:58.266Z,6.43
2022-10-09T07:11:27.624Z,6.53
2022-10-09T07:13:58.249Z,6.53
2022-10-09T07:16:30.779Z,6.07
2022-10-09T07:18:59.977Z,6.77
2022-10-09T07:21:26.895Z,6.30
2022-10-09T07:23:54.169Z,6.40
2022-10-09T07:26:25.701Z,7.27
2022-10-09T07:28:53.361Z,6.50
2022-10-09T07:31:20.500Z,6.60
2022-10-09T07:33:48.614Z,5.90
2022-10-09T07:36:15.710Z,5.83
2022-10-09T07:38:42.912Z,5.23
2022-10-09T07:41:12.168Z,5.40
2022-10-09T07:43:42.598Z,5.83
2022-10-09T07:46:14.227Z,5.37
2022-10-09T07:48:41.343Z,5.57
2022-10-09T07:51:22.688Z,6.10
2022-10-09T07:53:50.148Z,6.60
2022-10-09T07:56:22.150Z,6.00
2022-10-09T07:58:53.787Z,5.30
2022-10-09T08:01:21.614Z,5.53
2022-10-09T08:03:48.919Z,4.87
2022-10-09T08:06:16.138Z,5.13
2022-10-09T08:08:43.221Z,5.27
2022-10-09T08:11:11.735Z,4.60
2022-10-09T08:13:39.541Z,4.73
2022-10-09T08:16:07.436Z,4.30
2022-10-09T08:18:34.950Z,4.40
2022-10-09T08:21:18.885Z,4.63
2022-10-09T08:23:46.016Z,4.53
2022-10-09T08:26:14.578Z,4.40
2022-10-09T08:28:41.922Z,4.13
2022-10-09T08:31:13.385Z,4.03
2022-10-09T08:33:40.719Z,5.10
2022-10-09T08:36:09.628Z,3.67
2022-10-09T08:38:52.172Z,4.00
2022-10-09T08:41:27.217Z,3.33
2022-10-09T08:44:25.530Z,3.40
2022-10-09T08:46:56.571Z,3.70
2022-10-09T08:49:41.279Z,3.40
2022-10-09T08:52:26.620Z,5.60
2022-10-09T08:54:58.908Z,9.47
2022-10-09T08:57:29.360Z,3.60
2022-10-09T08:59:56.740Z,3.37
2022-10-09T09:02:50.896Z,3.70
2022-10-09T09:05:44.246Z,3.10
2022-10-09T09:08:32.940Z,3.37
2022-10-09T09:11:19.268Z,2.67
2022-10-09T09:14:30.435Z,3.33
2022-10-09T09:17:21.704Z,3.30
2022-10-09T09:19:48.844Z,3.13
2022-10-09T09:22:16.446Z,3.10
2022-10-09T09:24:56.324Z,2.90
2022-10-09T09:27:37.724Z,3.10
2022-10-09T09:30:40.219Z,3.10
2022-10-09T09:33:16.100Z,2.90
2022-10-09T09:35:51.416Z,2.93
2022-10-09T09:38:18.570Z,2.70
2022-10-09T09:40:47.278Z,2.73
2022-10-09T09:43:23.511Z,2.43
2022-10-09T09:45:59.796Z,2.53
2022-10-09T09:48:36.807Z,2.93
2022-10-09T09:51:28.811Z,2.53
2022-10-09T09:54:07.235Z,2.43
2022-10-09T09:57:07.014Z,2.30
2022-10-09T09:59:29.764Z,2.20
2022-10-09T10:02:23.429Z,2.20
2022-10-09T10:05:34.997Z,2.20
2022-10-09T10:08:12.853Z,2.40
2022-10-09T10:10:46.154Z,2.10
2022-10-09T10:13:17.069Z,2.47
2022-10-09T10:15:56.252Z,2.00
2022-10-09T10:18:25.880Z,2.00
2022-10-09T10:21:01.605Z,2.13
2022-10-09T10:23:52.307Z,2.13
2022-10-09T10:26:37.579Z,2.10
2022-10-09T10:29:35.913Z,1.80
2022-10-09T10:32:05.861Z,2.17
2022-10-09T10:34:40.325Z,2.03
2022-10-09T10:37:30.692Z,2.20
2022-10-09T10:40:00.561Z,2.13
2022-10-09T10:42:58.682Z,2.53
2022-10-09T10:45:34.290Z,2.43
2022-10-09T10:48:03.018Z,2.20
2022-10-09T10:50:37.336Z,2.00
2022-10-09T10:53:04.390Z,2.00
2022-10-09T10:55:40.201Z,1.97
2022-10-09T10:58:22.891Z,2.30
2022-10-09T11:01:14.846Z,2.10
2022-10-09T11:04:03.229Z,2.60
2022-10-09T11:06:41.897Z,2.00
2022-10-09T11:09:33.768Z,1.60
2022-10-09T11:12:30.035Z,2.00
2022-10-09T11:15:13.367Z,1.93
2022-10-09T11:17:58.629Z,1.70
2022-10-09T11:20:37.315Z,2.33
2022-10-09T11:23:36.064Z,1.97
2022-10-09T11:26:08.737Z,1.73
2022-10-09T11:28:46.109Z,1.47
2022-10-09T11:31:31.206Z,1.70
2022-10-09T11:34:07.164Z,1.67
2022-10-09T11:36:40.644Z,1.70
2022-10-09T11:39:22.315Z,1.60
2022-10-09T11:41:52.654Z,1.63
2022-10-09T11:44:24.494Z,1.60
2022-10-09T11:47:16.438Z,1.87
2022-10-09T11:49:58.176Z,1.50
2022-10-09T11:52:25.262Z,1.53
2022-10-09T11:54:51.960Z,1.83
2022-10-09T11:57:28.412Z,1.80
2022-10-09T12:00:09.636Z,1.50
2022-10-09T12:02:37.634Z,1.40
2022-10-09T12:05:44.917Z,1.40
2022-10-09T12:08:14.097Z,1.30
2022-10-09T12:10:54.957Z,1.50
2022-10-09T12:13:53.624Z,1.37
2022-10-09T12:16:40.656Z,1.40
2022-10-09T12:19:40.870Z,1.70
2022-10-09T12:22:18.367Z,1.50
2022-10-09T12:24:48.375Z,1.60
2022-10-09T12:27:22.116Z,1.27
2022-10-09T12:29:54.924Z,1.60
2022-10-09T12:32:31.515Z,1.90
2022-10-09T12:34:58.807Z,1.40
2022-10-09T12:37:36.174Z,1.53
2022-10-09T12:40:15.840Z,1.30
2022-10-09T12:42:44.516Z,1.70
2022-10-09T12:45:21.356Z,1.40
2022-10-09T12:47:48.767Z,1.50
2022-10-09T12:50:35.165Z,1.27
2022-10-09T12:53:12.992Z,1.30
2022-10-09T12:55:49.646Z,1.50
2022-10-09T12:58:32.336Z,1.67
2022-10-09T13:01:02.134Z,1.70
2022-10-09T13:03:36.316Z,1.60
2022-10-09T13:06:13.048Z,1.60
2022-10-09T13:08:40.671Z,1.53
2022-10-09T13:11:43.053Z,1.70
2022-10-09T13:14:33.213Z,1.40
2022-10-09T13:17:00.630Z,1.37
2022-10-09T13:19:35.214Z,1.47
2022-10-09T13:22:02.290Z,1.47
2022-10-09T13:24:29.607Z,1.30
2022-10-09T13:26:56.749Z,1.30
2022-10-09T13:29:23.758Z,1.50
2022-10-09T13:31:50.834Z,1.20
2022-10-09T13:34:18.839Z,1.67
2022-10-09T13:36:45.570Z,1.70
2022-10-09T13:39:16.241Z,1.40
2022-10-09T13:41:44.533Z,1.50
2022-10-09T13:44:11.510Z,1.40
2022-10-09T13:46:38.168Z,1.50
2022-10-09T13:49:05.371Z,1.40
2022-10-09T13:51:32.795Z,1.33
2022-10-09T13:53:59.919Z,1.97
2022-10-09T13:56:26.590Z,1.43
2022-10-09T13:58:53.753Z,1.40
2022-10-09T14:01:21.049Z,2.73
2022-10-09T14:03:48.218Z,1.60
2022-10-09T14:06:14.909Z,1.60
2022-10-09T14:08:42.048Z,1.60
2022-10-09T14:11:08.927Z,1.60
2022-10-09T14:13:35.627Z,1.70
2022-10-09T14:16:06.870Z,1.50
2022-10-09T14:18:34.105Z,1.67
2022-10-09T14:21:00.813Z,1.70
2022-10-09T14:23:27.438Z,1.73
2022-10-09T14:25:54.502Z,1.40
2022-10-09T14:28:21.270Z,1.80
2022-10-09T14:30:48.453Z,1.90
2022-10-09T14:33:15.133Z,1.73
2022-10-09T14:35:41.840Z,1.83
2022-10-09T14:38:08.700Z,1.80
2022-10-09T14:40:37.878Z,1.63
2022-10-09T14:43:04.949Z,1.50
2022-10-09T14:45:32.998Z,1.47
2022-10-09T14:47:59.712Z,1.50
2022-10-09T14:50:26.439Z,2.00
2022-10-09T14:52:53.107Z,1.50
2022-10-09T14:55:20.243Z,1.60
2022-10-09T14:57:47.321Z,1.50
2022-10-09T15:00:14.436Z,1.60
2022-10-09T15:05:13.165Z,1.50
2022-10-09T15:07:40.058Z,1.53
2022-10-09T15:10:07.021Z,1.80
2022-10-09T15:12:33.696Z,1.70
2022-10-09T15:15:00.771Z,1.63
2022-10-09T15:17:27.857Z,1.50
2022-10-09T15:19:55.154Z,1.30
2022-10-09T15:22:21.833Z,1.40
2022-10-09T15:24:49.018Z,1.50
2022-10-09T15:27:16.078Z,1.70
2022-10-09T15:29:42.761Z,1.60
2022-10-09T15:32:09.678Z,1.50
2022-10-09T15:34:40.785Z,1.60
2022-10-09T15:37:08.658Z,1.60
2022-10-09T15:39:35.758Z,1.70
2022-10-09T15:42:03.506Z,1.30
2022-10-09T15:44:30.219Z,1.50
2022-10-09T15:46:57.323Z,2.30
2022-10-09T15:49:23.961Z,1.57
2022-10-09T15:51:51.058Z,1.70
2022-10-09T15:54:18.148Z,1.60
2022-10-09T15:56:45.234Z,2.13
2022-10-09T15:59:16.947Z,1.50
2022-10-09T16:01:43.952Z,1.57
2022-10-09T16:04:11.079Z,1.50
2022-10-09T16:06:38.172Z,1.90
2022-10-09T16:09:05.124Z,1.50
2022-10-09T16:11:31.977Z,1.70
2022-10-09T16:13:59.272Z,1.73
2022-10-09T16:16:27.561Z,2.47
2022-10-09T16:18:55.161Z,1.80
2022-10-09T16:21:27.494Z,1.77
2022-10-09T16:23:58.386Z,1.70
2022-10-09T16:26:27.866Z,1.90
2022-10-09T16:28:54.576Z,1.87
2022-10-09T16:31:30.332Z,1.67
2022-10-09T16:33:58.087Z,1.80
2022-10-09T16:36:24.798Z,1.80
2022-10-09T16:38:51.915Z,2.10
2022-10-09T16:41:20.609Z,1.93
2022-10-09T16:43:49.700Z,1.73
2022-10-09T16:46:28.568Z,1.87
2022-10-09T16:48:57.034Z,1.80
2022-10-09T16:51:30.531Z,1.73
2022-10-09T16:53:59.675Z,1.80
2022-10-09T16:56:33.096Z,2.07
2022-10-09T16:59:02.012Z,1.80
2022-10-09T17:01:29.093Z,1.90
2022-10-09T17:03:57.708Z,1.77
2022-10-09T17:06:25.788Z,2.00
2022-10-09T17:08:57.658Z,1.80
2022-10-09T17:11:26.044Z,2.10
2022-10-09T17:13:56.615Z,1.80
2022-10-09T17:16:26.000Z,1.93
2022-10-09T17:18:54.227Z,2.00
2022-10-09T17:21:21.029Z,1.90
2022-10-09T17:23:48.107Z,1.90
2022-10-09T17:26:19.659Z,1.87
2022-10-09T17:28:47.634Z,2.03
2022-10-09T17:31:19.855Z,1.83
2022-10-09T17:33:48.837Z,2.20
2022-10-09T17:36:22.459Z,1.90
2022-10-09T17:38:50.382Z,2.00
2022-10-09T17:41:19.381Z,2.10
2022-10-09T17:43:46.460Z,2.00
2022-10-09T17:46:17.048Z,2.10
2022-10-09T17:48:47.013Z,2.20
2022-10-09T17:51:16.543Z,2.17
2022-10-09T17:53:43.690Z,2.40
2022-10-09T17:56:10.563Z,2.20
2022-10-09T17:58:37.850Z,2.47
2022-10-09T18:01:06.520Z,2.77
2022-10-09T18:03:33.368Z,1.93
2022-10-09T18:06:02.347Z,2.30
2022-10-09T18:08:31.056Z,2.47
2022-10-09T18:11:04.360Z,2.43
2022-10-09T18:13:31.319Z,2.60
2022-10-09T18:15:58.008Z,3.27
2022-10-09T18:18:24.756Z,3.70
2022-10-09T18:20:51.848Z,2.50
2022-10-09T18:23:22.376Z,2.70
2022-10-09T18:25:49.493Z,2.53
2022-10-09T18:28:16.628Z,2.70
2022-10-09T18:30:46.032Z,4.30
2022-10-09T18:33:13.032Z,2.70
2022-10-09T18:35:40.648Z,3.43
2022-10-09T18:38:08.445Z,2.70
2022-10-09T18:40:45.220Z,3.27
2022-10-09T18:43:12.787Z,3.00
2022-10-09T18:45:45.343Z,2.67
2022-10-09T18:48:12.302Z,3.17
2022-10-09T18:50:39.368Z,3.10
2022-10-09T18:53:06.164Z,3.20
2022-10-09T18:55:33.510Z,3.00
2022-10-09T18:58:02.089Z,2.77
2022-10-09T19:00:29.210Z,3.07
2022-10-09T19:02:56.315Z,3.10
2022-10-09T19:05:23.675Z,3.40
2022-10-09T19:07:50.527Z,2.90
2022-10-09T19:10:17.818Z,3.30
2022-10-09T19:12:44.463Z,3.13
2022-10-09T19:15:12.308Z,3.10
2022-10-09T19:17:39.707Z,3.40
2022-10-09T19:20:06.844Z,3.40
2022-10-09T19:22:33.678Z,3.37
2022-10-09T19:25:01.282Z,3.43
2022-10-09T19:27:28.389Z,3.20
2022-10-09T19:29:55.102Z,3.33
2022-10-09T19:32:23.791Z,3.43
2022-10-09T19:34:51.178Z,3.47
2022-10-09T19:37:18.442Z,3.70
2022-10-09T19:39:48.223Z,3.33
2022-10-09T19:42:15.953Z,4.13
2022-10-09T19:44:44.343Z,3.83
2022-10-09T19:47:12.396Z,3.37
2022-10-09T19:49:39.827Z,3.90
2022-10-09T19:52:06.583Z,3.40
2022-10-09T19:54:34.243Z,5.50
2022-10-09T19:57:01.368Z,7.30
2022-10-09T19:59:28.462Z,7.93
2022-10-09T20:01:57.681Z,6.60
2022-10-09T20:04:24.938Z,5.53
2022-10-09T20:06:52.209Z,4.50
2022-10-09T20:09:20.672Z,4.07
2022-10-09T20:11:47.605Z,4.07
2022-10-09T20:14:14.702Z,3.70
2022-10-09T20:16:41.790Z,3.63
2022-10-09T20:19:09.441Z,3.50
2022-10-09T20:21:36.486Z,3.97
2022-10-09T20:24:03.368Z,2.80
2022-10-09T20:26:33.040Z,3.63
2022-10-09T20:29:00.324Z,3.40
2022-10-09T20:31:27.588Z,3.20
2022-10-09T20:33:55.481Z,3.40
2022-10-09T20:36:22.553Z,2.83
2022-10-09T20:38:49.715Z,3.40
2022-10-09T20:41:16.617Z,3.10
2022-10-09T20:43:43.722Z,2.77
2022-10-09T20:46:13.509Z,3.10
2022-10-09T20:48:42.310Z,3.30
2022-10-09T20:51:09.868Z,3.83
2022-10-09T20:53:36.948Z,3.63
2022-10-09T20:56:08.842Z,3.43
2022-10-09T20:58:36.215Z,4.17
2022-10-09T21:01:07.324Z,3.50
2022-10-09T21:03:35.297Z,3.10
2022-10-09T21:06:04.257Z,3.60
2022-10-09T21:08:31.478Z,3.50
2022-10-09T21:10:58.718Z,3.17
2022-10-09T21:13:25.729Z,3.03
2022-10-09T21:15:52.819Z,3.20
2022-10-09T21:18:19.960Z,3.13
2022-10-09T21:20:48.431Z,3.40
2022-10-09T21:23:17.801Z,3.00
2022-10-09T21:25:52.509Z,2.97
2022-10-09T21:28:23.212Z,3.10
2022-10-09T21:30:50.155Z,3.43
2022-10-09T21:33:17.632Z,3.13
2022-10-09T21:35:46.849Z,2.60
2022-10-09T21:38:17.246Z,3.10
2022-10-09T21:40:44.503Z,2.90
2022-10-09T21:43:11.715Z,3.23
2022-10-09T21:45:40.108Z,2.70
2022-10-09T21:48:07.475Z,3.07
2022-10-09T21:50:36.398Z,2.87
2022-10-09T21:53:03.703Z,2.53
2022-10-09T21:55:30.387Z,2.90
2022-10-09T21:57:57.083Z,3.27
2022-10-09T22:00:23.872Z,2.90
2022-10-09T22:02:51.420Z,3.10
2022-10-09T22:05:18.788Z,3.40
2022-10-09T22:07:45.605Z,3.30
2022-10-09T22:10:12.788Z,3.13
2022-10-09T22:12:39.523Z,3.30
2022-10-09T22:15:06.831Z,3.80
2022-10-09T22:17:33.503Z,3.50
2022-10-09T22:20:00.629Z,3.60
2022-10-09T22:22:27.808Z,3.40
2022-10-09T22:24:54.536Z,3.87
2022-10-09T22:27:21.633Z,3.20
2022-10-09T22:29:48.294Z,3.50
2022-10-09T22:32:15.001Z,3.57
2022-10-09T22:34:42.067Z,3.77
2022-10-09T22:37:09.153Z,3.63
2022-10-09T22:39:36.325Z,3.60
2022-10-09T22:42:03.100Z,3.50
2022-10-09T22:44:30.354Z,3.67
2022-10-09T22:46:57.047Z,3.40
2022-10-09T22:49:23.712Z,3.80
2022-10-09T22:51:50.815Z,3.33
2022-10-09T22:54:18.978Z,3.93
2022-10-09T22:56:46.049Z,4.90
2022-10-09T22:59:15.506Z,4.80
2022-10-09T23:01:45.940Z,5.10
2022-10-09T23:04:15.181Z,5.13
2022-10-09T23:06:42.484Z,3.77
2022-10-09T23:09:11.834Z,3.80
2022-10-09T23:11:39.699Z,3.77
2022-10-09T23:14:06.918Z,3.47
2022-10-09T23:16:34.275Z,4.10
2022-10-09T23:19:06.803Z,3.80
2022-10-09T23:21:34.822Z,3.40
2022-10-09T23:24:01.909Z,3.27
2022-10-09T23:26:31.703Z,3.80
2022-10-09T23:29:01.528Z,3.70
2022-10-09T23:31:29.063Z,3.43
2022-10-09T23:33:56.431Z,3.47
2022-10-09T23:36:25.338Z,2.80
2022-10-09T23:38:52.686Z,3.53
2022-10-09T23:41:21.629Z,3.23
2022-10-09T23:43:48.757Z,3.67
2022-10-09T23:46:18.315Z,3.30
2022-10-09T23:48:45.810Z,3.30
2022-10-09T23:51:14.129Z,2.97
2022-10-09T23:53:41.732Z,3.20
2022-10-09T23:56:20.373Z,3.30
2022-10-09T23:58:47.482Z,2.70
